Atlanta, NE

2:53 AM CDT on September 25, 2016 (GMT -0500)
Brewster

Weather History for KHDE - January, 2013

Change the Weather History Date:

Monday, January 7, 2013

  Actual Average Record
Temperature  
Mean Temperature 26 °F -  
Max Temperature 37 °F 29 °F 62 °F (2003)
Min Temperature 14 °F 10 °F -14 °F (1968)
Degree Days  
Heating Degree Days 38    
Moisture  
Dew Point 22 °F    
Average Humidity 79    
Maximum Humidity 92    
Minimum Humidity 64    
Precipitation  
Precipitation 0.00 in - - ()
Sea Level Pressure  
Sea Level Pressure 29.94 in    
Wind  
Wind Speed 10 mph (WSW)    
Max Wind Speed 21 mph    
Max Gust Speed 29 mph    
Visibility 10 miles    
Events      
Averages and records for this station are not official NWS values.
T = Trace of Precipitation, MM = Missing Value Source: NWS Daily Summary

Daily Weather History Graph

Daily Weather History Graph

Search for Another Location

Airport or City:

Trip Planner

Search our weather history database for the weather conditions in past years. The results will help you decide how hot, cold, wet, or windy it might be!

Date:

Astronomy

Jan. 07, 2013 Rise Set
Actual Time 8:00 AM CST 5:27 PM CST
Civil Twilight 7:30 AM CST 5:57 PM CST
Nautical Twilight 6:56 AM CST 6:31 PM CST
Astronomical Twilight 6:23 AM CST 7:04 PM CST
Moon 3:26 AM CST (1/7) 1:39 PM CST (1/7)
Length of Visible Light 10h 27m
Length of Day
9h 26m
Waning Crescent, 22% of the Moon is Illuminated
Jan 7
Waning Crescent
Jan 11
New
Jan 18
First Quarter
Jan 26
Full
Feb 3
Last Quarter

Hourly Weather History & Observations

Time (CST) Temp. Windchill Dew Point Humidity Pressure Visibility Wind Dir Wind Speed Gust Speed Precip Events Conditions
12:15 AM 28.4 °F 16.2 °F 23.0 °F 80% 29.99 in 10.0 mi South 17.3 mph - N/A   Clear
12:35 AM 29.1 °F 17.1 °F 23.0 °F 78% 29.97 in 10.0 mi South 17.3 mph 21.9 mph N/A   Clear
12:55 AM 30.0 °F 17.2 °F 23.7 °F 77% 29.96 in 10.0 mi South 20.7 mph 28.8 mph N/A   Clear
1:55 AM 29.8 °F 18.0 °F 23.0 °F 76% 29.95 in 10.0 mi South 17.3 mph 24.2 mph N/A   Clear
2:35 AM 29.8 °F 18.4 °F 22.8 °F 75% 29.95 in 10.0 mi South 16.1 mph 21.9 mph N/A   Clear
3:15 AM 29.3 °F 17.0 °F 22.6 °F 76% 29.94 in 10.0 mi South 18.4 mph - N/A   Clear
3:35 AM 30.7 °F 19.6 °F 23.0 °F 73% 29.94 in 10.0 mi South 16.1 mph - N/A   Clear
3:55 AM 31.1 °F 20.1 °F 23.0 °F 72% 29.93 in 10.0 mi South 16.1 mph - N/A   Clear
4:15 AM 31.6 °F 20.7 °F 23.4 °F 71% 29.93 in 10.0 mi South 16.1 mph - N/A   Clear
4:35 AM 31.5 °F 20.5 °F 23.0 °F 71% 29.93 in 10.0 mi SSW 16.1 mph - N/A   Clear
4:55 AM 31.1 °F 20.5 °F 23.0 °F 72% 29.92 in 10.0 mi SSW 15.0 mph - N/A   Clear
5:15 AM 30.2 °F 23.4 °F 22.8 °F 74% 29.92 in 10.0 mi SW 6.9 mph - N/A   Clear
5:35 AM 29.3 °F 19.1 °F 22.6 °F 76% 29.91 in 10.0 mi SSW 12.7 mph - N/A   Clear
5:55 AM 29.5 °F 18.8 °F 22.6 °F 76% 29.92 in 10.0 mi SSW 13.8 mph 17.3 mph N/A   Clear
6:15 AM 28.0 °F 17.5 °F 22.1 °F 78% 29.93 in 10.0 mi SW 12.7 mph - N/A   Clear
6:35 AM 28.0 °F 18.6 °F 21.9 °F 78% 29.93 in 10.0 mi SW 10.4 mph - N/A   Clear
6:55 AM 26.4 °F 18.0 °F 21.0 °F 80% 29.94 in 10.0 mi SW 8.1 mph - N/A   Clear
7:15 AM 26.2 °F 17.8 °F 20.8 °F 80% 29.94 in 10.0 mi West 8.1 mph - N/A   Clear
7:35 AM 26.6 °F 18.2 °F 21.6 °F 81% 29.93 in 10.0 mi WSW 8.1 mph - N/A   Clear
7:55 AM 26.1 °F 17.6 °F 21.0 °F 81% 29.93 in 10.0 mi West 8.1 mph - N/A   Clear
8:15 AM 23.9 °F 16.8 °F 19.6 °F 84% 29.95 in 10.0 mi West 5.8 mph - N/A   Clear
8:35 AM 23.4 °F 16.2 °F 19.4 °F 85% 29.95 in 10.0 mi West 5.8 mph - N/A   Clear
9:15 AM 23.4 °F 15.2 °F 20.1 °F 87% 29.97 in 10.0 mi West 6.9 mph - N/A   Clear
9:35 AM 23.2 °F 17.2 °F 18.9 °F 84% 29.98 in 10.0 mi SW 4.6 mph - N/A   Clear
9:55 AM 23.0 °F 18.4 °F 18.9 °F 84% 29.97 in 10.0 mi WNW 3.5 mph - N/A   Clear
10:15 AM 25.3 °F 16.0 °F 19.8 °F 79% 29.98 in 10.0 mi WNW 9.2 mph - N/A   Clear
10:35 AM 25.5 °F 17.8 °F 20.1 °F 80% 29.99 in 10.0 mi WNW 6.9 mph - N/A   Clear
10:55 AM 26.4 °F 18.0 °F 19.8 °F 76% 29.99 in 10.0 mi NW 8.1 mph - N/A   Clear
11:35 AM 30.7 °F 22.6 °F 22.1 °F 70% 29.98 in 10.0 mi NNW 9.2 mph - N/A   Clear
11:55 AM 32.0 °F 24.8 °F 23.4 °F 70% 29.97 in 10.0 mi North 8.1 mph - N/A   Clear
12:15 PM 33.3 °F 25.7 °F 24.4 °F 70% 29.97 in 10.0 mi NNW 9.2 mph - N/A   Clear
12:35 PM 34.0 °F 28.0 °F 25.7 °F 72% 29.96 in 10.0 mi North 6.9 mph - N/A   Clear
12:55 PM 34.0 °F 29.8 °F 26.1 °F 73% 29.95 in 10.0 mi North 4.6 mph - N/A   Clear
1:15 PM 34.5 °F - 27.0 °F 74% 29.95 in 10.0 mi Calm Calm - N/A   Clear
1:35 PM 35.8 °F - 27.9 °F 73% 29.94 in 10.0 mi Calm Calm - N/A   Clear
1:55 PM 36.5 °F - 26.8 °F 68% 29.94 in 10.0 mi Calm Calm - N/A   Clear
2:15 PM 37.4 °F - 26.2 °F 64% 29.94 in 10.0 mi Calm Calm - N/A   Clear
2:55 PM 37.4 °F - 26.6 °F 65% 29.93 in 10.0 mi Calm Calm - N/A   Clear
3:15 PM 37.6 °F - 26.6 °F 65% 29.94 in 10.0 mi Calm Calm - N/A   Clear
3:35 PM 37.8 °F - 26.8 °F 65% 29.93 in 10.0 mi Calm Calm - N/A   Clear
3:55 PM 36.9 °F - 26.4 °F 66% 29.94 in 10.0 mi Calm Calm - N/A   Clear
4:15 PM 37.0 °F 34.5 °F 26.1 °F 65% 29.93 in 10.0 mi SE 3.5 mph - N/A   Clear
4:35 PM 36.5 °F 33.9 °F 26.8 °F 68% 29.92 in 10.0 mi South 3.5 mph - N/A   Clear
5:15 PM 33.6 °F - 25.7 °F 73% 29.92 in 10.0 mi Calm Calm - N/A   Clear
5:35 PM 32.4 °F 26.9 °F 25.2 °F 75% 29.93 in 10.0 mi WNW 5.8 mph - N/A   Clear
5:55 PM 30.9 °F 27.5 °F 24.8 °F 78% 29.93 in 10.0 mi WNW 3.5 mph - N/A   Clear
6:15 PM 29.7 °F - 24.8 °F 82% 29.93 in 10.0 mi Calm Calm - N/A   Clear
6:35 PM 27.5 °F - 23.5 °F 85% 29.93 in 10.0 mi Calm Calm - N/A   Clear
6:55 PM 25.7 °F - 21.9 °F 86% 29.93 in 10.0 mi Calm Calm - N/A   Clear
7:15 PM 23.7 °F - 20.8 °F 89% 29.93 in 10.0 mi Calm Calm - N/A   Clear
7:35 PM 23.0 °F - 20.5 °F 90% 29.93 in 10.0 mi Calm Calm - N/A   Clear
7:55 PM 20.8 °F - 18.3 °F 90% 29.93 in 7.0 mi Calm Calm - N/A   Clear
8:15 PM 21.4 °F - 19.2 °F 91% 29.92 in 10.0 mi Calm Calm - N/A   Clear
8:35 PM 21.0 °F - 18.9 °F 91% 29.91 in 10.0 mi Calm Calm - N/A   Clear
8:55 PM 19.2 °F - 17.1 °F 91% 29.91 in 4.0 mi Calm Calm - N/A   Clear
9:15 PM 16.7 °F - 14.4 °F 91% 29.91 in 10.0 mi Calm Calm - N/A   Clear
9:35 PM 17.8 °F - 15.4 °F 91% 29.92 in 7.0 mi Calm Calm - N/A   Clear
9:55 PM 19.0 °F 13.9 °F 17.1 °F 92% 29.91 in 7.0 mi West 3.5 mph - N/A   Clear
10:15 PM 19.0 °F 13.9 °F 16.7 °F 91% 29.90 in 7.0 mi SSW 3.5 mph - N/A   Clear
10:35 PM 19.0 °F - 16.9 °F 91% 29.89 in 7.0 mi Calm Calm - N/A   Clear
10:55 PM 17.6 °F - 15.1 °F 90% 29.89 in 7.0 mi Calm Calm - N/A   Clear
11:15 PM 16.7 °F - 14.4 °F 91% 29.88 in 10.0 mi Calm Calm - N/A   Clear
11:35 PM 16.9 °F 11.5 °F 14.4 °F 90% 29.87 in 10.0 mi WNW 3.5 mph - N/A   Clear
11:55 PM 14.7 °F - 12.2 °F 90% 29.87 in 10.0 mi Calm Calm - N/A   Clear